Skip Navigation Links Skip Navigation Links

Current Weather

Jubail Naval, Saudi Arabia

For information only: do not use for flight planning or navigation.
Latest weather
Observation time Tuesday, October 19, 2021 11:00 AM +03
Local time Tuesday, October 19, 2021 11:33 AM +03
Flight conditions Visual Meteorological Conditions
Winds
Wind direction North (350°)
Wind speed 20 mph
Visibility 6.2 mi.
Sky condition
Ceiling unlimited
Sky clear
Temperature 91°F
Dewpoint 61°F
Altimeter 29.94 in.Hg
Derived measurements
Relative humidity 36%
Heat index 91°F
Density altitude 2283 ft.
Remarks
Fully automated report.
Ceiling and visibility OK.
No significant changes expected in the next two hours.
METAR OEJB 190800Z AUTO 35017KT CAVOK 33/16 Q1014 NOSIG

Settings

Location code

InnerDrive.Weather 4.0.6770.0 Release CLR 4.0.30319.42000
Copyright ©2018 Inner Drive Technology. All rights reserved. Portions Copyright ©1986-2018 David Braverman.

Find weather

Site navigation


Skip Navigation Links

Place info

Page info

PayPal - The safer, easier way to pay online!

Return home.

Copyright ©2021 Inner Drive Technology. Purveyors of fine, hand-crafted computer software. Page printed 2021-10-19T08:33:24 UTC.